Time;durP1;ratioP1;P1;durP2;ratioP2;P2;SDS_P1;SDS_P2;PMS_P1;PMS_P2;Temp;Humidity;BMP_temperature;BMP_pressure;BME280_temperature;BME280_humidity;BME280_pressure;Samples;Min_cycle;Max_cycle;Signal;HPM_P1;HPM_P2
2021/06/27 00:00:31;;;;;;;8.48;6.97;;;;;;;16.38;71.82;101472.72;4840557;29;20075;-79
2021/06/27 00:02:58;;;;;;;7.95;7.15;;;;;;;16.31;72.07;101479.22;4859008;29;20053;-80
2021/06/27 00:05:25;;;;;;;7.93;6.93;;;;;;;16.19;72.37;101461.38;4874745;29;20049;-79
2021/06/27 00:07:52;;;;;;;8.57;7.30;;;;;;;16.14;72.47;101453.69;4870186;29;20058;-80
2021/06/27 00:10:26;;;;;;;8.23;7.18;;;;;;;16.23;72.03;101468.19;4830103;29;20559;-80
2021/06/27 00:12:52;;;;;;;9.60;6.80;;;;;;;16.25;72.18;101459.28;4831552;29;20057;-81
2021/06/27 00:15:25;;;;;;;10.05;7.28;;;;;;;16.27;71.96;101464.47;4860325;29;20056;-82
2021/06/27 00:17:52;;;;;;;9.75;7.70;;;;;;;16.10;72.52;101466.16;4843131;29;20050;-80
2021/06/27 00:20:22;;;;;;;9.35;8.13;;;;;;;16.10;72.31;101463.53;4860625;29;20049;-83
2021/06/27 00:22:48;;;;;;;9.95;7.93;;;;;;;16.03;72.19;101472.66;4862450;29;20049;-82
2021/06/27 00:25:17;;;;;;;9.00;8.10;;;;;;;15.76;73.40;101451.97;4863350;29;20573;-83
2021/06/27 00:27:48;;;;;;;9.98;8.93;;;;;;;15.78;73.74;101468.56;4860823;29;20061;-80
2021/06/27 00:30:16;;;;;;;10.40;9.02;;;;;;;15.57;73.71;101452.00;4855491;29;20054;-83
2021/06/27 00:32:44;;;;;;;11.27;9.65;;;;;;;15.64;73.82;101477.09;4842891;29;20050;-82
2021/06/27 00:35:12;;;;;;;13.07;11.18;;;;;;;15.59;74.01;101476.47;4829278;29;20046;-81
2021/06/27 00:37:38;;;;;;;10.85;9.40;;;;;;;15.57;74.26;101480.09;4855322;29;20128;-82
2021/06/27 00:40:09;;;;;;;11.73;9.50;;;;;;;15.27;74.36;101433.22;4859511;29;20093;-82
2021/06/27 00:42:35;;;;;;;12.27;9.68;;;;;;;15.45;74.60;101469.22;4861127;29;20057;-81
2021/06/27 00:45:04;;;;;;;12.10;9.77;;;;;;;15.43;74.58;101478.97;4858700;29;20049;-81
2021/06/27 00:47:33;;;;;;;10.90;9.80;;;;;;;15.38;74.90;101478.31;4848102;29;20068;-81
2021/06/27 00:50:00;;;;;;;12.27;10.45;;;;;;;15.33;75.32;101482.91;4846325;29;20472;-82
2021/06/27 00:52:26;;;;;;;12.15;9.60;;;;;;;15.22;75.54;101478.13;4859690;29;20073;-83
2021/06/27 00:54:53;;;;;;;12.40;9.27;;;;;;;15.24;75.62;101485.97;4829081;29;20050;-82
2021/06/27 00:57:20;;;;;;;13.90;10.48;;;;;;;15.10;75.36;101461.16;4857481;29;20136;-81
2021/06/27 00:59:47;;;;;;;12.68;9.93;;;;;;;15.06;75.45;101459.56;4856497;29;20503;-81
2021/06/27 01:02:13;;;;;;;11.07;9.75;;;;;;;15.15;75.75;101484.63;4863554;29;20050;-80
2021/06/27 01:04:40;;;;;;;11.07;9.35;;;;;;;15.19;75.42;101483.56;4866679;29;20079;-82
2021/06/27 01:07:07;;;;;;;12.27;10.05;;;;;;;15.24;74.95;101488.63;4846218;29;20050;-82
2021/06/27 01:09:34;;;;;;;10.40;9.15;;;;;;;15.24;74.93;101480.72;4876479;29;20052;-80
2021/06/27 01:12:01;;;;;;;11.15;8.75;;;;;;;15.12;74.95;101453.19;4880358;29;20045;-80
2021/06/27 01:14:30;;;;;;;12.70;8.85;;;;;;;15.29;74.75;101489.25;4869769;29;20060;-83
2021/06/27 01:16:56;;;;;;;8.80;7.43;;;;;;;15.27;74.85;101489.34;4860094;29;20057;-83
2021/06/27 01:19:22;;;;;;;8.98;8.00;;;;;;;15.28;74.50;101495.44;4831085;29;20065;-81
2021/06/27 01:21:53;;;;;;;9.48;7.97;;;;;;;15.26;74.56;101484.13;4853544;29;20050;-81
2021/06/27 01:24:20;;;;;;;9.77;7.80;;;;;;;15.31;74.58;101484.78;4854195;29;20113;-83
2021/06/27 01:26:48;;;;;;;10.57;8.05;;;;;;;15.30;74.56;101481.28;4852863;29;20052;-80
2021/06/27 01:29:17;;;;;;;10.23;8.63;;;;;;;15.25;74.37;101477.19;4845744;29;20061;-82
2021/06/27 01:31:46;;;;;;;9.35;8.30;;;;;;;15.24;74.42;101480.72;4867834;29;20097;-81
2021/06/27 01:34:14;;;;;;;10.75;8.60;;;;;;;15.04;74.56;101448.28;4871955;29;20053;-80
2021/06/27 01:36:42;;;;;;;10.65;8.73;;;;;;;15.04;74.63;101449.13;4853862;29;20053;-79
2021/06/27 01:39:23;;;;;;;10.32;9.13;;;;;;;15.16;74.94;101473.16;4837737;29;20487;-79
2021/06/27 01:41:52;;;;;;;10.13;8.15;;;;;;;15.24;74.60;101467.56;4868276;29;20057;-79
2021/06/27 01:44:35;;;;;;;10.70;9.02;;;;;;;15.27;74.67;101468.28;4870361;29;20050;-80
2021/06/27 01:47:04;;;;;;;9.80;8.63;;;;;;;15.25;74.68;101461.41;4850741;29;20054;-79
2021/06/27 01:49:31;;;;;;;11.52;9.32;;;;;;;15.19;74.71;101458.09;4852738;29;20106;-79
2021/06/27 01:51:59;;;;;;;10.82;9.50;;;;;;;15.18;74.80;101460.81;4845366;29;20050;-79
2021/06/27 01:54:26;;;;;;;10.48;9.05;;;;;;;15.22;75.00;101462.34;4861354;29;20082;-78
2021/06/27 01:56:53;;;;;;;11.95;10.05;;;;;;;15.09;74.66;101438.41;4863303;29;20173;-79
2021/06/27 01:59:22;;;;;;;12.05;10.15;;;;;;;15.20;74.84;101462.44;4863913;29;20053;-78
2021/06/27 02:01:49;;;;;;;11.07;9.60;;;;;;;15.11;74.73;101438.34;4864493;29;20514;-79
2021/06/27 02:04:16;;;;;;;11.85;9.35;;;;;;;15.14;75.04;101449.56;4863722;29;20060;-79
2021/06/27 02:06:46;;;;;;;13.73;11.13;;;;;;;15.16;75.03;101449.50;4875309;29;20037;-79
2021/06/27 02:09:14;;;;;;;13.35;10.20;;;;;;;15.19;75.04;101447.56;4879529;29;20090;-79
2021/06/27 02:11:41;;;;;;;12.52;10.82;;;;;;;15.25;74.90;101450.88;4855266;29;20050;-81
2021/06/27 02:14:07;;;;;;;13.90;11.45;;;;;;;15.11;75.25;101435.72;4848145;29;20061;-80
2021/06/27 02:16:34;;;;;;;13.00;10.75;;;;;;;15.22;74.96;101454.47;4856076;29;20045;-81
2021/06/27 02:19:01;;;;;;;13.02;11.43;;;;;;;15.27;74.80;101447.25;4833600;29;20061;-82
2021/06/27 02:21:47;;;;;;;13.70;10.63;;;;;;;15.27;74.82;101451.63;4861107;29;20434;-81
2021/06/27 02:24:39;;;;;;;13.15;10.10;;;;;;;15.25;74.97;101450.88;4852336;29;20053;-83
2021/06/27 02:27:07;;;;;;;13.57;10.43;;;;;;;15.21;74.83;101440.47;4852997;29;20046;-80
2021/06/27 02:29:34;;;;;;;13.38;10.93;;;;;;;15.09;74.83;101427.91;4849767;29;20057;-82
2021/06/27 02:32:04;;;;;;;12.02;9.82;;;;;;;15.25;74.51;101437.72;4864110;29;20057;-81
2021/06/27 02:34:33;;;;;;;13.57;10.30;;;;;;;15.23;74.44;101426.41;4863830;29;20053;-82
2021/06/27 02:36:59;;;;;;;14.00;11.68;;;;;;;15.26;74.59;101423.63;4847185;29;20054;-82
2021/06/27 02:39:28;;;;;;;12.35;10.45;;;;;;;15.26;74.71;101428.88;4863323;29;20054;-81
2021/06/27 02:41:54;;;;;;;11.60;10.07;;;;;;;15.24;74.74;101420.22;4849572;29;20061;-81
2021/06/27 02:44:20;;;;;;;13.57;10.30;;;;;;;15.23;74.84;101418.53;4845042;29;20045;-82
2021/06/27 02:46:47;;;;;;;14.05;11.02;;;;;;;15.18;74.76;101416.97;4850881;29;20046;-79
2021/06/27 02:49:14;;;;;;;13.70;11.25;;;;;;;15.04;74.65;101399.19;4864463;29;20046;-82
2021/06/27 02:51:40;;;;;;;14.55;10.77;;;;;;;15.17;74.71;101409.13;4863398;29;20049;-81
2021/06/27 02:54:09;;;;;;;13.90;11.10;;;;;;;15.25;74.62;101417.53;4868670;29;20046;-79
2021/06/27 02:56:35;;;;;;;12.13;10.82;;;;;;;15.26;74.59;101410.47;4828581;29;20097;-81
2021/06/27 02:59:01;;;;;;;15.73;10.90;;;;;;;15.30;74.35;101423.41;4868187;29;20049;-79
2021/06/27 03:01:27;;;;;;;14.18;11.02;;;;;;;15.27;74.15;101399.03;4847897;29;20050;-84
2021/06/27 03:03:53;;;;;;;17.15;11.70;;;;;;;15.19;73.97;101391.50;4876072;29;20462;-81
2021/06/27 03:06:20;;;;;;;14.43;10.75;;;;;;;15.16;74.47;101397.75;4862057;29;20051;-78
2021/06/27 03:08:48;;;;;;;13.80;11.18;;;;;;;15.26;74.25;101408.72;4869307;29;20044;-77
2021/06/27 03:11:17;;;;;;;13.57;11.95;;;;;;;15.27;74.17;101410.41;4868806;29;20156;-77
2021/06/27 03:13:44;;;;;;;14.48;11.65;;;;;;;15.23;73.91;101405.38;4880912;29;20104;-78
2021/06/27 03:16:12;;;;;;;14.02;11.32;;;;;;;15.21;74.37;101408.09;4841247;29;20102;-78
2021/06/27 03:18:39;;;;;;;13.35;11.23;;;;;;;15.23;74.35;101408.00;4845346;29;20065;-78
2021/06/27 03:21:07;;;;;;;13.27;11.02;;;;;;;15.28;74.01;101411.25;4834929;29;20057;-77
2021/06/27 03:23:34;;;;;;;15.25;11.85;;;;;;;15.35;73.75;101407.41;4857118;29;20483;-78
2021/06/27 03:26:02;;;;;;;14.88;11.63;;;;;;;15.34;73.31;101403.09;4869000;29;20049;-78
2021/06/27 03:28:34;;;;;;;13.15;10.85;;;;;;;15.21;73.10;101392.31;4891600;29;20049;-78
2021/06/27 03:31:03;;;;;;;14.30;10.98;;;;;;;15.08;73.63;101402.53;4875585;29;20082;-79
2021/06/27 03:33:31;;;;;;;12.85;10.98;;;;;;;15.11;73.30;101391.88;4859618;29;20101;-78
2021/06/27 03:35:58;;;;;;;12.45;11.05;;;;;;;15.12;73.23;101396.19;4855337;29;20395;-78
2021/06/27 03:38:35;;;;;;;13.52;10.90;;;;;;;14.99;73.25;101371.38;4852148;29;20050;-79
2021/06/27 03:41:01;;;;;;;16.65;11.25;;;;;;;15.15;72.99;101395.22;4844564;29;20054;-80
2021/06/27 03:43:27;;;;;;;12.00;9.88;;;;;;;15.08;73.38;101394.63;4853761;29;20403;-81
2021/06/27 03:45:53;;;;;;;13.60;10.68;;;;;;;15.11;73.29;101384.00;4861382;29;20053;-79
2021/06/27 03:48:19;;;;;;;14.40;11.93;;;;;;;14.96;73.24;101363.66;4848094;29;20067;-80
2021/06/27 03:50:45;;;;;;;14.32;11.18;;;;;;;14.99;73.60;101377.50;4844794;29;20049;-81
2021/06/27 03:53:11;;;;;;;12.95;10.65;;;;;;;14.98;73.41;101367.91;4844065;29;20465;-80
2021/06/27 03:55:39;;;;;;;11.98;10.52;;;;;;;15.03;73.57;101378.22;4868603;29;20162;-81
2021/06/27 03:58:05;;;;;;;13.50;10.60;;;;;;;15.00;73.45;101367.84;4876453;29;20057;-79
2021/06/27 04:00:31;;;;;;;13.77;12.00;;;;;;;14.96;73.60;101384.69;4879795;29;20058;-79
2021/06/27 04:02:57;;;;;;;13.77;10.23;;;;;;;14.93;73.74;101385.69;4895567;29;20135;-79
2021/06/27 04:05:23;;;;;;;13.43;10.18;;;;;;;14.91;73.61;101379.63;4901779;29;20059;-79
2021/06/27 04:07:49;;;;;;;14.10;10.40;;;;;;;14.62;73.06;101336.25;4880767;29;20029;-80
2021/06/27 04:10:20;;;;;;;13.85;10.40;;;;;;;14.85;73.32;101369.41;4864777;29;20040;-79
2021/06/27 04:12:47;;;;;;;13.13;9.80;;;;;;;14.76;73.41;101365.41;4862521;29;20052;-81
2021/06/27 04:15:13;;;;;;;13.38;9.98;;;;;;;14.81;73.43;101378.34;4847024;29;20053;-80
2021/06/27 04:17:41;;;;;;;12.50;9.90;;;;;;;14.49;73.34;101315.78;4864150;29;20052;-81
2021/06/27 04:20:10;;;;;;;12.57;9.77;;;;;;;14.75;73.45;101360.22;4869135;29;20061;-79
2021/06/27 04:22:37;;;;;;;13.55;9.63;;;;;;;14.68;73.22;101354.38;4863275;29;20041;-81
2021/06/27 04:25:05;;;;;;;13.57;10.98;;;;;;;14.61;73.63;101377.44;4864052;29;20061;-81
2021/06/27 04:27:32;;;;;;;13.20;10.90;;;;;;;14.54;73.58;101355.81;4863807;29;20140;-79
2021/06/27 04:29:58;;;;;;;13.85;10.35;;;;;;;14.51;73.89;101341.97;4847402;29;20054;-82
2021/06/27 04:32:25;;;;;;;13.93;11.05;;;;;;;14.67;73.63;101365.81;4847782;29;20041;-79
2021/06/27 04:34:55;;;;;;;13.10;10.98;;;;;;;14.77;73.49;101371.50;4878122;29;20058;-80
2021/06/27 04:37:22;;;;;;;14.48;10.95;;;;;;;14.71;73.44;101370.88;4857383;29;20076;-80
2021/06/27 04:39:51;;;;;;;11.63;10.15;;;;;;;14.61;72.93;101360.81;4844112;29;20081;-83
2021/06/27 04:42:17;;;;;;;12.90;9.10;;;;;;;14.56;73.04;101376.75;4848250;29;20081;-82
2021/06/27 04:44:43;;;;;;;11.13;7.45;;;;;;;14.32;72.64;101344.53;4850046;29;20133;-82
2021/06/27 04:47:09;;;;;;;7.82;6.65;;;;;;;14.47;72.72;101370.16;4859192;29;20050;-81
2021/06/27 04:49:40;;;;;;;8.10;6.25;;;;;;;14.52;72.40;101356.81;4849103;29;20057;-82
2021/06/27 04:52:10;;;;;;;8.82;6.07;;;;;;;14.47;72.53;101367.53;4862319;29;20046;-82
2021/06/27 04:54:37;;;;;;;7.40;5.53;;;;;;;14.47;72.83;101364.06;4866958;29;20399;-79
2021/06/27 04:57:06;;;;;;;7.80;5.20;;;;;;;14.47;73.11;101375.41;4866763;29;20053;-80
2021/06/27 04:59:33;;;;;;;6.57;4.90;;;;;;;14.38;73.67;101366.16;4867399;29;20049;-82
2021/06/27 05:02:03;;;;;;;5.10;4.25;;;;;;;14.22;73.96;101346.72;4870552;29;20509;-82
2021/06/27 05:04:29;;;;;;;5.78;4.05;;;;;;;14.13;74.38;101342.72;4851239;29;20050;-80
2021/06/27 05:06:55;;;;;;;5.22;3.88;;;;;;;14.01;74.57;101317.00;4858621;29;20110;-79
2021/06/27 05:09:21;;;;;;;6.68;4.57;;;;;;;14.21;74.04;101331.91;4862368;29;20049;-80
2021/06/27 05:11:47;;;;;;;5.40;4.68;;;;;;;14.35;73.97;101353.13;4867342;29;20068;-79
2021/06/27 05:14:13;;;;;;;9.18;6.57;;;;;;;14.43;73.49;101350.19;4867130;29;20478;-80
2021/06/27 05:16:40;;;;;;;8.52;7.22;;;;;;;14.39;73.30;101341.59;4850495;29;20105;-78
2021/06/27 05:19:07;;;;;;;9.10;7.75;;;;;;;14.36;73.32;101328.59;4849511;29;20145;-78
2021/06/27 05:21:34;;;;;;;10.23;9.13;;;;;;;14.41;73.11;101326.63;4872197;29;20053;-77
2021/06/27 05:24:03;;;;;;;11.13;9.90;;;;;;;14.51;73.39;101344.59;4898323;29;20053;-77
2021/06/27 05:26:30;;;;;;;13.80;11.63;;;;;;;14.36;73.66;101323.34;4895411;29;20064;-78
2021/06/27 05:28:58;;;;;;;13.05;11.73;;;;;;;14.52;73.38;101351.56;4894153;29;20049;-78
2021/06/27 05:31:25;;;;;;;14.05;11.50;;;;;;;14.57;73.19;101349.56;4852564;29;20050;-78
2021/06/27 05:33:53;;;;;;;13.55;12.15;;;;;;;14.44;73.24;101330.91;4865304;29;20053;-78
2021/06/27 05:36:21;;;;;;;13.05;11.50;;;;;;;14.08;73.03;101264.16;4877318;29;20054;-79
2021/06/27 05:38:48;;;;;;;12.80;11.50;;;;;;;14.66;72.80;101343.94;4867219;29;20128;-79
2021/06/27 05:41:16;;;;;;;12.40;11.00;;;;;;;14.65;72.94;101344.88;4866340;29;20084;-78
2021/06/27 05:43:44;;;;;;;11.43;10.23;;;;;;;14.70;72.84;101350.75;4866842;29;20250;-78
2021/06/27 05:46:11;;;;;;;11.13;9.60;;;;;;;14.59;72.70;101337.22;4877212;29;20056;-79
2021/06/27 05:48:39;;;;;;;10.48;9.43;;;;;;;14.60;73.11;101330.19;4874193;29;20029;-77
2021/06/27 05:51:06;;;;;;;13.20;10.30;;;;;;;14.62;73.11;101344.97;4842848;29;20062;-78
2021/06/27 05:53:34;;;;;;;11.38;9.15;;;;;;;14.56;73.18;101326.84;4847920;29;20061;-78
2021/06/27 05:56:16;;;;;;;13.05;11.25;;;;;;;14.72;73.36;101341.03;4850424;29;20053;-78
2021/06/27 05:58:44;;;;;;;14.18;10.75;;;;;;;14.76;73.22;101330.38;4850397;29;20483;-78
2021/06/27 06:01:21;;;;;;;13.38;11.07;;;;;;;14.83;73.39;101337.06;4835207;29;20068;-78
2021/06/27 06:03:56;;;;;;;14.13;11.43;;;;;;;14.86;73.36;101339.56;4884603;29;20045;-78
2021/06/27 06:06:26;;;;;;;12.70;10.40;;;;;;;14.77;73.54;101332.97;4860613;29;20157;-79
2021/06/27 06:08:55;;;;;;;13.10;11.35;;;;;;;14.87;73.47;101334.22;4852819;29;20105;-79
2021/06/27 06:11:27;;;;;;;11.80;10.23;;;;;;;14.86;73.62;101334.31;4868889;29;20065;-79
2021/06/27 06:13:59;;;;;;;10.60;7.88;;;;;;;14.36;73.30;101248.97;4867936;29;20570;-78
2021/06/27 06:16:28;;;;;;;9.88;7.10;;;;;;;14.85;73.08;101328.19;4869265;29;20056;-79
2021/06/27 06:18:58;;;;;;;7.78;5.95;;;;;;;14.71;72.86;101313.06;4868255;29;20574;-79
2021/06/27 06:21:37;;;;;;;7.47;5.57;;;;;;;14.74;73.13;101317.31;4869072;29;20060;-78
2021/06/27 06:24:13;;;;;;;6.20;5.43;;;;;;;14.75;73.32;101323.44;4868129;29;20049;-78
2021/06/27 06:26:44;;;;;;;6.28;4.85;;;;;;;14.67;73.52;101323.78;4869012;29;20049;-79
2021/06/27 06:29:17;;;;;;;5.65;4.13;;;;;;;14.68;73.61;101321.09;4864366;29;20136;-77
2021/06/27 06:31:44;;;;;;;5.68;4.45;;;;;;;14.54;74.11;101313.78;4875935;29;20467;-78
2021/06/27 06:34:15;;;;;;;5.57;4.00;;;;;;;14.47;74.20;101291.34;4868873;29;20057;-78
2021/06/27 06:36:48;;;;;;;5.80;4.35;;;;;;;14.66;73.93;101315.06;4876480;29;20050;-79
2021/06/27 06:39:21;;;;;;;8.02;4.85;;;;;;;14.67;74.17;101311.50;4864577;29;20078;-79
2021/06/27 06:41:52;;;;;;;7.80;4.35;;;;;;;14.62;74.36;101315.22;4871757;29;20057;-80
2021/06/27 06:44:19;;;;;;;5.82;4.85;;;;;;;14.50;74.54;101288.59;4872927;29;20046;-80
2021/06/27 06:46:48;;;;;;;8.70;4.78;;;;;;;14.57;74.97;101308.41;4851792;29;20190;-79
2021/06/27 06:49:16;;;;;;;6.53;5.13;;;;;;;14.57;75.00;101311.03;4851229;29;20579;-78
2021/06/27 06:51:46;;;;;;;6.55;4.63;;;;;;;14.68;75.23;101312.34;4850655;29;20514;-78
2021/06/27 06:54:16;;;;;;;5.97;4.63;;;;;;;14.52;75.93;101301.66;4851902;29;20057;-78
2021/06/27 06:56:48;;;;;;;5.80;4.32;;;;;;;14.54;76.46;101316.41;4874564;29;20043;-78
2021/06/27 06:59:19;;;;;;;6.13;5.20;;;;;;;14.46;77.46;101317.69;4856902;29;20491;-79
2021/06/27 07:01:47;;;;;;;8.05;5.20;;;;;;;14.48;77.32;101318.47;4830859;29;20049;-79
2021/06/27 07:04:14;;;;;;;6.93;5.35;;;;;;;14.41;77.77;101318.75;4846697;29;20427;-79
2021/06/27 07:06:43;;;;;;;7.75;4.75;;;;;;;14.37;78.13;101305.81;4855978;29;20050;-80
2021/06/27 07:09:11;;;;;;;6.70;4.47;;;;;;;14.51;78.41;101329.69;4848167;29;20095;-81
2021/06/27 07:11:38;;;;;;;6.70;4.97;;;;;;;14.44;77.84;101294.13;4851121;29;20046;-80
2021/06/27 07:14:05;;;;;;;8.82;5.05;;;;;;;14.63;77.89;101324.81;4851828;29;20419;-83
2021/06/27 07:16:32;;;;;;;7.50;5.10;;;;;;;14.63;77.72;101328.28;4831269;29;20115;-82
2021/06/27 07:18:58;;;;;;;6.38;4.80;;;;;;;14.63;77.51;101312.50;4853593;29;20046;-83
2021/06/27 07:21:27;;;;;;;8.73;5.40;;;;;;;14.68;77.58;101331.59;4851862;29;20072;-84
2021/06/27 07:23:55;;;;;;;6.35;4.63;;;;;;;14.77;77.28;101337.34;4833480;29;20198;-83
2021/06/27 07:26:24;;;;;;;6.38;4.65;;;;;;;14.75;77.58;101326.06;4847828;29;20054;-81
2021/06/27 07:28:53;;;;;;;8.75;4.80;;;;;;;14.80;77.28;101335.44;4841569;29;20049;-83
2021/06/27 07:31:37;;;;;;;6.90;4.57;;;;;;;14.75;77.55;101313.78;4866654;29;20064;-80
2021/06/27 07:34:13;;;;;;;6.57;5.00;;;;;;;14.63;77.60;101309.03;4864180;29;20529;-83
2021/06/27 07:36:42;;;;;;;7.38;5.30;;;;;;;14.71;77.47;101326.19;4833346;29;20049;-83
2021/06/27 07:39:10;;;;;;;6.85;4.22;;;;;;;14.56;77.81;101295.31;4862795;29;20073;-80
2021/06/27 07:41:41;;;;;;;7.03;4.97;;;;;;;14.77;77.37;101311.06;4847063;29;20102;-83
2021/06/27 07:44:10;;;;;;;8.95;5.07;;;;;;;14.82;77.46;101309.94;4846690;29;20483;-79
2021/06/27 07:46:38;;;;;;;6.75;4.72;;;;;;;14.97;76.94;101326.75;4856398;29;20049;-79
2021/06/27 07:49:07;;;;;;;8.07;4.70;;;;;;;14.90;76.56;101299.06;4846787;29;20061;-80
2021/06/27 07:51:34;;;;;;;7.18;5.30;;;;;;;15.07;76.45;101326.34;4845677;29;20399;-79
2021/06/27 07:54:07;;;;;;;7.55;5.20;;;;;;;15.03;76.12;101317.75;4846985;29;20050;-83
2021/06/27 07:56:37;;;;;;;7.78;4.97;;;;;;;15.11;76.52;101330.53;4851104;29;20057;-80
2021/06/27 07:59:04;;;;;;;7.78;5.13;;;;;;;15.20;75.84;101330.09;4847831;29;20089;-79
2021/06/27 08:01:59;;;;;;;8.80;5.30;;;;;;;15.26;75.86;101326.31;4860108;29;20045;-80
2021/06/27 08:04:38;;;;;;;10.70;5.38;;;;;;;15.35;75.60;101325.88;4850552;29;20061;-80
2021/06/27 08:07:13;;;;;;;9.68;5.50;;;;;;;15.18;75.48;101300.38;4847585;29;20140;-79
2021/06/27 08:09:45;;;;;;;9.57;5.32;;;;;;;15.37;75.36;101326.66;4882796;29;20033;-77
2021/06/27 08:12:15;;;;;;;7.20;5.40;;;;;;;15.43;75.43;101326.38;4875532;29;20047;-77
2021/06/27 08:14:44;;;;;;;9.05;5.13;;;;;;;15.49;75.09;101326.06;4849525;29;20045;-79
2021/06/27 08:17:11;;;;;;;9.75;6.28;;;;;;;15.34;75.03;101306.63;4843272;29;20130;-79
2021/06/27 08:19:41;;;;;;;10.40;5.50;;;;;;;15.47;74.96;101321.81;4847857;29;20058;-80
2021/06/27 08:22:11;;;;;;;9.43;6.30;;;;;;;15.39;75.42;101318.69;4842834;29;20057;-79
2021/06/27 08:24:42;;;;;;;9.55;6.40;;;;;;;15.22;75.21;101278.25;4860515;29;20058;-79
2021/06/27 08:27:09;;;;;;;17.95;9.88;;;;;;;15.38;74.92;101281.03;4865116;29;20045;-78
2021/06/27 08:29:38;;;;;;;9.05;5.15;;;;;;;15.55;74.58;101289.84;4874567;29;20046;-79
2021/06/27 08:32:11;;;;;;;11.55;6.60;;;;;;;15.68;74.07;101296.19;4865028;29;20082;-81
2021/06/27 08:34:45;;;;;;;8.65;6.22;;;;;;;15.75;74.47;101304.66;4865358;29;20061;-79
2021/06/27 08:37:14;;;;;;;9.48;6.30;;;;;;;15.81;74.20;101294.66;4861187;29;20053;-84
2021/06/27 08:39:44;;;;;;;9.73;5.75;;;;;;;15.97;73.62;101293.91;4851660;29;20054;-84
2021/06/27 08:42:20;;;;;;;9.20;6.18;;;;;;;15.74;73.28;101248.50;4852115;29;20087;-83
2021/06/27 08:44:49;;;;;;;8.82;5.80;;;;;;;16.06;72.86;101301.31;4838596;29;20495;-81
2021/06/27 08:47:18;;;;;;;9.98;6.10;;;;;;;16.03;72.90;101301.50;4857871;29;20046;-83
2021/06/27 08:49:51;;;;;;;7.82;5.78;;;;;;;16.09;73.13;101295.06;4851341;29;20061;-79
2021/06/27 08:52:20;;;;;;;10.40;6.68;;;;;;;16.22;72.79;101309.31;4850549;29;20061;-83
2021/06/27 08:54:50;;;;;;;10.45;8.15;;;;;;;16.15;72.73;101282.41;4868041;29;20085;-81
2021/06/27 08:57:19;;;;;;;9.88;6.55;;;;;;;16.11;72.86;101295.81;4850710;29;20181;-84
2021/06/27 08:59:47;;;;;;;8.82;6.53;;;;;;;16.14;73.17;101285.13;4858003;29;20503;-80
2021/06/27 09:02:14;;;;;;;9.10;6.55;;;;;;;16.28;72.52;101277.38;4859289;29;20052;-81
2021/06/27 09:04:46;;;;;;;11.27;6.65;;;;;;;16.40;72.22;101275.84;4857248;29;20054;-83
2021/06/27 09:07:35;;;;;;;8.90;6.55;;;;;;;16.25;72.60;101276.69;4847415;29;20053;-82
2021/06/27 09:10:16;;;;;;;10.75;7.18;;;;;;;16.36;72.54;101276.13;4850402;29;20065;-83
2021/06/27 09:12:56;;;;;;;11.70;7.40;;;;;;;16.53;71.94;101265.50;4859470;29;20050;-81
2021/06/27 09:15:35;;;;;;;12.10;7.90;;;;;;;16.62;72.02;101265.03;4861854;29;20053;-81
2021/06/27 09:18:09;;;;;;;10.70;7.75;;;;;;;16.75;71.28;101248.53;4872441;29;20078;-81
2021/06/27 09:20:37;;;;;;;11.17;7.63;;;;;;;16.83;70.98;101253.34;4844663;29;20050;-82
2021/06/27 09:23:06;;;;;;;10.60;7.43;;;;;;;17.07;70.20;101264.34;4873023;29;20041;-78
2021/06/27 09:25:35;;;;;;;12.52;8.40;;;;;;;17.17;70.10;101260.25;4867274;29;20109;-80
2021/06/27 09:28:16;;;;;;;9.30;6.53;;;;;;;17.26;69.36;101258.88;4866347;29;20418;-81
2021/06/27 09:30:50;;;;;;;8.10;6.13;;;;;;;17.70;68.55;101254.56;4850603;29;20141;-81
2021/06/27 09:33:22;;;;;;;9.50;7.15;;;;;;;17.76;67.67;101260.34;4862378;29;20060;-83
2021/06/27 09:36:13;;;;;;;8.35;6.20;;;;;;;17.67;68.24;101265.31;4872910;29;20447;-79
2021/06/27 09:38:52;;;;;;;9.43;6.55;;;;;;;17.70;67.98;101258.06;4877042;29;20097;-79
2021/06/27 09:41:22;;;;;;;12.07;7.53;;;;;;;17.81;67.91;101260.06;4869180;29;20463;-79
2021/06/27 09:43:55;;;;;;;9.57;7.15;;;;;;;18.10;67.11;101256.63;4865100;29;20050;-80
2021/06/27 09:46:44;;;;;;;10.02;7.45;;;;;;;17.84;66.43;101204.41;4860626;29;20083;-83
2021/06/27 09:49:31;;;;;;;10.00;7.78;;;;;;;18.06;66.73;101248.88;4859276;29;20570;-82
2021/06/27 09:52:05;;;;;;;10.88;7.72;;;;;;;18.36;66.10;101245.31;4833474;29;20061;-77
2021/06/27 09:54:31;;;;;;;13.13;8.32;;;;;;;18.34;65.78;101230.50;4859937;29;20061;-78
2021/06/27 09:56:57;;;;;;;10.88;7.72;;;;;;;18.69;65.12;101245.94;4857831;29;20054;-79
2021/06/27 09:59:33;;;;;;;10.55;7.47;;;;;;;18.46;65.03;101244.75;4848302;29;20080;-80
2021/06/27 10:01:59;;;;;;;9.50;6.50;;;;;;;18.30;66.05;101239.56;4855188;29;20108;-78
2021/06/27 10:04:33;;;;;;;12.52;7.88;;;;;;;18.32;65.79;101243.81;4850435;29;20053;-84
2021/06/27 10:07:01;;;;;;;9.73;7.00;;;;;;;18.34;66.09;101246.34;4850401;29;20054;-81
2021/06/27 10:09:41;;;;;;;12.43;7.43;;;;;;;18.60;65.13;101244.69;4850631;29;20061;-81
2021/06/27 10:12:19;;;;;;;10.20;6.97;;;;;;;18.86;64.27;101236.91;4852738;29;20091;-80
2021/06/27 10:14:50;;;;;;;8.45;6.55;;;;;;;19.10;63.50;101233.63;4870013;29;20072;-83
2021/06/27 10:17:29;;;;;;;11.75;6.90;;;;;;;19.16;63.25;101244.69;4869423;29;20046;-87
2021/06/27 10:19:56;;;;;;;10.25;6.97;;;;;;;19.11;63.32;101222.94;4836055;29;20058;-90
2021/06/27 10:22:26;;;;;;;8.52;6.38;;;;;;;19.33;62.58;101219.75;4858254;29;20126;-88
2021/06/27 10:24:57;;;;;;;9.00;6.70;;;;;;;19.55;62.17;101230.69;4855494;29;20106;-79
2021/06/27 10:27:28;;;;;;;8.20;6.97;;;;;;;19.60;62.12;101228.56;4857056;29;20117;-84
2021/06/27 10:29:57;;;;;;;11.38;7.43;;;;;;;19.55;62.10;101228.03;4867216;29;20065;-82
2021/06/27 10:32:23;;;;;;;11.18;6.72;;;;;;;19.42;62.43;101239.44;4871542;29;20038;-84
2021/06/27 10:34:49;;;;;;;9.65;6.35;;;;;;;19.39;63.20;101237.00;4856237;29;20167;-80
2021/06/27 10:37:23;;;;;;;8.80;6.68;;;;;;;19.17;63.17;101241.06;4866720;29;20064;-81
2021/06/27 10:40:00;;;;;;;10.20;6.93;;;;;;;18.99;64.29;101236.97;4843944;29;20132;-90
2021/06/27 10:42:47;;;;;;;10.23;7.82;;;;;;;18.92;64.33;101235.69;4874545;29;20130;-80
2021/06/27 10:45:14;;;;;;;12.40;7.45;;;;;;;18.84;64.93;101241.44;4882284;29;20057;-87
2021/06/27 10:47:41;;;;;;;10.15;7.63;;;;;;;18.71;65.20;101244.00;4882313;29;20058;-83
2021/06/27 10:50:08;;;;;;;9.98;8.43;;;;;;;18.41;65.75;101231.81;4877673;29;20050;-86
2021/06/27 10:52:55;;;;;;;10.02;7.85;;;;;;;18.48;66.04;101248.97;4865193;29;20122;-85
2021/06/27 10:55:22;;;;;;;10.27;7.70;;;;;;;18.48;66.26;101243.69;4855450;29;20057;-82
2021/06/27 10:58:11;;;;;;;11.45;7.63;;;;;;;19.06;64.00;101234.78;4864217;29;20053;-79
2021/06/27 11:00:56;;;;;;;10.43;7.70;;;;;;;19.48;62.75;101228.44;4877948;29;20538;-78
2021/06/27 11:03:36;;;;;;;10.13;7.93;;;;;;;19.57;62.49;101234.06;4892494;29;20053;-81
2021/06/27 11:06:17;;;;;;;10.52;7.85;;;;;;;19.38;62.98;101229.16;4858928;29;20079;-81
2021/06/27 11:08:48;;;;;;;10.80;7.95;;;;;;;19.17;63.60;101213.75;4860708;29;20054;-83
2021/06/27 11:11:17;;;;;;;10.85;8.68;;;;;;;19.28;63.73;101239.53;4861241;29;20082;-86
2021/06/27 11:14:04;;;;;;;10.00;7.85;;;;;;;18.94;64.68;101231.97;4877448;29;20057;-88
2021/06/27 11:16:51;;;;;;;9.75;7.70;;;;;;;18.90;64.88;101234.91;4873926;29;20046;-85
2021/06/27 11:19:33;;;;;;;9.60;7.90;;;;;;;19.01;64.68;101227.16;4877384;29;20049;-82
2021/06/27 11:22:20;;;;;;;9.25;6.97;;;;;;;19.36;63.85;101235.41;4859482;29;20061;-83
2021/06/27 11:24:50;;;;;;;10.23;7.45;;;;;;;19.32;63.52;101214.53;4877815;29;20050;-78
2021/06/27 11:27:34;;;;;;;9.88;7.45;;;;;;;19.31;63.82;101219.00;4890561;29;20054;-79
2021/06/27 11:30:20;;;;;;;9.93;7.95;;;;;;;19.12;64.21;101200.00;4852587;29;20054;-79
2021/06/27 11:32:48;;;;;;;9.18;7.35;;;;;;;19.18;64.46;101213.66;4849917;29;20054;-86